createdAt,value
2018-07-22T00:00:18.793Z,17.30
2018-07-22T00:00:51.783Z,17.40
2018-07-22T00:01:24.780Z,17.40
2018-07-22T00:01:57.843Z,17.40
2018-07-22T00:02:30.833Z,17.30
2018-07-22T00:03:03.890Z,17.30
2018-07-22T00:03:36.936Z,17.40
2018-07-22T00:04:10.286Z,17.40
2018-07-22T00:04:43.307Z,17.40
2018-07-22T00:05:16.307Z,17.40
2018-07-22T00:05:49.313Z,17.40
2018-07-22T00:06:22.291Z,17.40
2018-07-22T00:06:55.973Z,17.40
2018-07-22T00:07:29.018Z,17.40
2018-07-22T00:08:02.039Z,17.40
2018-07-22T00:08:35.021Z,17.30
2018-07-22T00:09:10.365Z,17.50
2018-07-22T00:09:43.337Z,17.40
2018-07-22T00:10:24.645Z,17.40
2018-07-22T00:10:58.312Z,17.40
2018-07-22T00:11:31.321Z,17.30
2018-07-22T00:12:04.319Z,17.30
2018-07-22T00:12:37.333Z,17.40
2018-07-22T00:13:10.341Z,17.30
2018-07-22T00:13:43.339Z,17.40
2018-07-22T00:14:16.401Z,17.40
2018-07-22T00:14:49.407Z,17.30
2018-07-22T00:15:22.503Z,17.30
2018-07-22T00:15:55.500Z,17.40
2018-07-22T00:16:28.520Z,17.30
2018-07-22T00:17:01.535Z,17.40
2018-07-22T00:17:34.585Z,17.40
2018-07-22T00:18:07.644Z,17.40
2018-07-22T00:18:40.616Z,17.20
2018-07-22T00:19:13.584Z,17.30
2018-07-22T00:19:46.619Z,17.30
2018-07-22T00:20:20.081Z,17.40
2018-07-22T00:20:53.031Z,17.30
2018-07-22T00:21:26.079Z,17.30
2018-07-22T00:21:59.088Z,17.30
2018-07-22T00:22:32.099Z,17.20
2018-07-22T00:23:05.203Z,17.30
2018-07-22T00:23:38.186Z,17.30
2018-07-22T00:24:11.189Z,17.40
2018-07-22T00:24:44.214Z,17.30
2018-07-22T00:25:17.328Z,17.30
2018-07-22T00:25:50.347Z,17.30
2018-07-22T00:26:23.322Z,17.30
2018-07-22T00:26:56.319Z,17.30
2018-07-22T00:27:29.297Z,17.30
2018-07-22T00:28:02.305Z,17.20
2018-07-22T00:28:35.278Z,17.30
2018-07-22T00:29:08.281Z,17.30
2018-07-22T00:29:41.289Z,17.30
2018-07-22T00:30:14.287Z,17.30
2018-07-22T00:30:47.299Z,17.30
2018-07-22T00:31:20.310Z,17.20
2018-07-22T00:31:53.279Z,17.30
2018-07-22T00:33:55.858Z,17.30
2018-07-22T00:34:28.929Z,17.30
2018-07-22T00:35:01.914Z,17.40
2018-07-22T00:35:34.905Z,17.40
2018-07-22T00:36:07.895Z,17.40
2018-07-22T00:36:40.900Z,17.40
2018-07-22T00:37:13.864Z,17.50
2018-07-22T00:37:46.872Z,17.40
2018-07-22T00:38:19.863Z,17.40
2018-07-22T00:38:52.933Z,17.40
2018-07-22T00:39:25.929Z,17.40
2018-07-22T00:39:58.970Z,17.40
2018-07-22T00:40:41.961Z,17.40
2018-07-22T00:42:01.367Z,17.40
2018-07-22T00:42:34.376Z,17.40
2018-07-22T00:43:07.371Z,17.50
2018-07-22T00:43:40.376Z,17.50
2018-07-22T00:44:13.367Z,17.40
2018-07-22T00:44:46.379Z,17.50
2018-07-22T00:45:19.436Z,17.50
2018-07-22T00:45:52.431Z,17.40
2018-07-22T00:46:25.451Z,17.40
2018-07-22T00:46:58.436Z,17.50
2018-07-22T00:47:31.445Z,17.50
2018-07-22T00:48:05.432Z,17.40
2018-07-22T00:48:38.465Z,17.40
2018-07-22T00:49:11.447Z,17.40
2018-07-22T00:49:44.453Z,17.50
2018-07-22T00:50:17.664Z,17.40
2018-07-22T00:50:50.671Z,17.40
2018-07-22T00:51:23.642Z,17.40
2018-07-22T00:51:56.666Z,17.40
2018-07-22T00:52:29.689Z,17.40
2018-07-22T00:53:02.770Z,17.50
2018-07-22T00:53:35.742Z,17.50
2018-07-22T00:54:08.734Z,17.40
2018-07-22T00:54:41.674Z,17.50
2018-07-22T00:55:14.649Z,17.40
2018-07-22T00:55:47.803Z,17.40
2018-07-22T00:56:20.810Z,17.30
2018-07-22T00:56:53.781Z,17.40
2018-07-22T00:57:26.831Z,17.40
2018-07-22T00:57:59.834Z,17.50
2018-07-22T00:58:32.806Z,17.50
2018-07-22T00:59:05.852Z,17.40
2018-07-22T00:59:38.858Z,17.30
2018-07-22T01:00:11.904Z,17.40
2018-07-22T01:00:44.955Z,17.40
2018-07-22T01:01:18.851Z,17.30
2018-07-22T01:01:51.874Z,17.40
2018-07-22T01:02:24.879Z,17.30
2018-07-22T01:02:57.895Z,17.40
2018-07-22T01:03:30.891Z,17.40
2018-07-22T01:04:03.917Z,17.50
2018-07-22T01:04:36.865Z,17.40
2018-07-22T01:05:09.836Z,17.40
2018-07-22T01:05:42.816Z,17.40
2018-07-22T01:06:15.828Z,17.40
2018-07-22T01:06:48.828Z,17.40
2018-07-22T01:07:21.824Z,17.40
2018-07-22T01:07:54.860Z,17.40
2018-07-22T01:08:27.875Z,17.40
2018-07-22T01:09:00.843Z,17.40
2018-07-22T01:09:33.836Z,17.50
2018-07-22T01:10:06.860Z,17.50
2018-07-22T01:10:39.830Z,17.40
2018-07-22T01:11:12.912Z,17.40
2018-07-22T01:11:45.901Z,17.40
2018-07-22T01:12:19.121Z,17.40
2018-07-22T01:12:52.127Z,17.40
2018-07-22T01:13:25.240Z,17.40
2018-07-22T01:13:58.248Z,17.50
2018-07-22T01:14:31.267Z,17.60
2018-07-22T01:15:05.007Z,17.50
2018-07-22T01:15:38.105Z,17.60
2018-07-22T01:16:11.574Z,17.50
2018-07-22T01:16:44.557Z,17.60
2018-07-22T01:17:17.650Z,17.50
2018-07-22T01:17:50.614Z,17.60
2018-07-22T01:18:23.646Z,17.50
2018-07-22T01:18:56.673Z,17.50
2018-07-22T01:19:29.660Z,17.50
2018-07-22T01:20:02.732Z,17.50
2018-07-22T01:20:36.262Z,17.40
2018-07-22T01:21:09.294Z,17.50
2018-07-22T01:21:42.338Z,17.40
2018-07-22T01:22:15.356Z,17.50
2018-07-22T01:22:48.359Z,17.40
2018-07-22T01:23:21.335Z,17.50
2018-07-22T01:23:54.309Z,17.40
2018-07-22T01:24:27.299Z,17.40
2018-07-22T01:25:00.380Z,17.50
2018-07-22T01:25:33.392Z,17.40
2018-07-22T01:26:06.510Z,17.40
2018-07-22T01:26:39.580Z,17.40
2018-07-22T01:27:12.654Z,17.40
2018-07-22T01:27:45.618Z,17.30
2018-07-22T01:28:18.624Z,17.40
2018-07-22T01:28:51.536Z,17.40
2018-07-22T01:29:24.491Z,17.40
2018-07-22T01:29:57.502Z,17.40
2018-07-22T01:30:30.492Z,17.40
2018-07-22T01:31:03.515Z,17.40
2018-07-22T01:31:36.502Z,17.30
2018-07-22T01:32:09.506Z,17.40
2018-07-22T01:32:42.456Z,17.30
2018-07-22T01:33:15.432Z,17.40
2018-07-22T01:33:48.417Z,17.40
2018-07-22T01:34:21.392Z,17.30
2018-07-22T01:34:54.366Z,17.40
2018-07-22T01:35:27.326Z,17.30
2018-07-22T01:36:00.332Z,17.40
2018-07-22T01:36:33.272Z,17.30
2018-07-22T01:37:06.310Z,17.30
2018-07-22T01:37:39.330Z,17.20
2018-07-22T01:38:12.338Z,17.30
2018-07-22T01:38:45.348Z,17.30
2018-07-22T01:39:18.329Z,17.30
2018-07-22T01:39:51.280Z,17.40
2018-07-22T01:40:24.264Z,17.40
2018-07-22T01:40:57.322Z,17.30
2018-07-22T01:41:30.353Z,17.40
2018-07-22T01:42:03.338Z,17.30
2018-07-22T01:42:36.408Z,17.30
2018-07-22T01:43:09.368Z,17.30
2018-07-22T01:43:42.359Z,17.30
2018-07-22T01:44:15.351Z,17.30
2018-07-22T01:44:48.304Z,17.40
2018-07-22T01:45:21.262Z,17.30
2018-07-22T01:45:54.224Z,17.20
2018-07-22T01:46:27.870Z,17.30
2018-07-22T01:47:00.863Z,17.40
2018-07-22T01:47:34.832Z,17.30
2018-07-22T01:48:07.886Z,17.30
2018-07-22T01:48:40.870Z,17.30
2018-07-22T01:49:13.918Z,17.30
2018-07-22T01:49:46.896Z,17.30
2018-07-22T01:50:19.868Z,17.40
2018-07-22T01:50:52.878Z,17.30
2018-07-22T01:51:26.152Z,17.30
2018-07-22T01:51:59.146Z,17.30
2018-07-22T01:52:32.098Z,17.30
2018-07-22T01:53:05.078Z,17.30
2018-07-22T01:53:38.074Z,17.40
2018-07-22T01:54:11.018Z,17.40
2018-07-22T01:54:43.984Z,17.30
2018-07-22T01:55:17.076Z,17.40
2018-07-22T01:55:50.062Z,17.30
2018-07-22T01:56:23.086Z,17.20
2018-07-22T01:56:56.082Z,17.30
2018-07-22T01:57:29.064Z,17.30
2018-07-22T01:58:02.150Z,17.30
2018-07-22T01:58:35.134Z,17.30
2018-07-22T01:59:08.130Z,17.30
2018-07-22T01:59:41.102Z,17.30
2018-07-22T02:00:14.124Z,17.40
2018-07-22T02:00:47.106Z,17.30
2018-07-22T02:01:20.108Z,17.30
2018-07-22T02:01:53.110Z,17.30
2018-07-22T02:02:26.134Z,17.30
2018-07-22T02:02:59.806Z,17.30
2018-07-22T02:03:32.784Z,17.30
2018-07-22T02:04:06.028Z,17.20
2018-07-22T02:04:39.138Z,17.20
2018-07-22T02:05:12.166Z,17.30
2018-07-22T02:05:45.212Z,17.30
2018-07-22T02:06:18.192Z,17.40
2018-07-22T02:06:51.193Z,17.30
2018-07-22T02:07:24.210Z,17.30
2018-07-22T02:07:57.386Z,17.30
2018-07-22T02:08:30.386Z,17.30
2018-07-22T02:09:05.494Z,17.30
2018-07-22T02:09:38.482Z,17.30
2018-07-22T02:10:11.512Z,17.20
2018-07-22T02:10:44.521Z,17.20
2018-07-22T02:11:17.524Z,17.40
2018-07-22T02:11:50.586Z,17.30
2018-07-22T02:12:23.608Z,17.30
2018-07-22T02:12:56.622Z,17.30
2018-07-22T02:13:29.602Z,17.30
2018-07-22T02:14:02.598Z,17.30
2018-07-22T02:14:35.612Z,17.40
2018-07-22T02:15:08.610Z,17.40
2018-07-22T02:15:41.562Z,17.30
2018-07-22T02:16:14.549Z,17.30
2018-07-22T02:16:47.526Z,17.30
2018-07-22T02:17:20.600Z,17.30
2018-07-22T02:17:53.634Z,17.30
2018-07-22T02:18:26.638Z,17.30
2018-07-22T02:18:59.650Z,17.30
2018-07-22T02:19:32.644Z,17.30
2018-07-22T02:20:05.774Z,17.30
2018-07-22T02:20:38.782Z,17.30
2018-07-22T02:21:11.772Z,17.30
2018-07-22T02:21:44.852Z,17.30
2018-07-22T02:22:17.814Z,17.30
2018-07-22T02:22:50.794Z,17.30
2018-07-22T02:23:23.738Z,17.20
2018-07-22T02:23:56.680Z,17.50
2018-07-22T02:24:29.658Z,17.30
2018-07-22T02:25:02.678Z,17.40
2018-07-22T02:25:35.716Z,17.40
2018-07-22T02:26:08.716Z,17.40
2018-07-22T02:26:41.716Z,17.40
2018-07-22T02:27:14.726Z,17.40
2018-07-22T02:27:47.713Z,17.40
2018-07-22T02:28:20.662Z,17.40
2018-07-22T02:28:53.654Z,17.40
2018-07-22T02:29:26.673Z,17.40
2018-07-22T02:29:59.660Z,17.40
2018-07-22T02:30:32.655Z,17.40
2018-07-22T02:31:06.372Z,17.40
2018-07-22T02:31:39.338Z,17.50
2018-07-22T02:32:12.317Z,17.40
2018-07-22T02:32:45.308Z,17.40
2018-07-22T02:33:18.296Z,17.50
2018-07-22T02:33:51.283Z,17.40
2018-07-22T02:34:24.397Z,17.40
2018-07-22T02:34:57.366Z,17.30
2018-07-22T02:35:30.328Z,17.40
2018-07-22T02:36:03.311Z,17.40
2018-07-22T02:36:36.305Z,17.40
2018-07-22T02:37:09.300Z,17.40
2018-07-22T02:37:42.278Z,17.40
2018-07-22T02:38:15.298Z,17.30
2018-07-22T02:38:48.253Z,17.30
2018-07-22T02:39:21.224Z,17.40
2018-07-22T02:39:54.200Z,17.40
2018-07-22T02:40:27.188Z,17.40
2018-07-22T02:41:00.150Z,17.30
2018-07-22T02:41:33.180Z,17.50
2018-07-22T02:42:06.208Z,17.40
2018-07-22T02:42:39.172Z,17.50
2018-07-22T02:43:12.191Z,17.40
2018-07-22T02:43:45.228Z,17.40
2018-07-22T02:44:18.204Z,17.40
2018-07-22T02:44:51.192Z,17.40
2018-07-22T02:45:24.258Z,17.40
2018-07-22T02:45:57.254Z,17.40
2018-07-22T02:46:30.218Z,17.40
2018-07-22T02:47:03.236Z,17.30
2018-07-22T02:47:36.271Z,17.30
2018-07-22T02:48:09.250Z,17.30
2018-07-22T02:48:42.238Z,17.30
2018-07-22T02:49:15.187Z,17.30
2018-07-22T02:49:48.168Z,17.30
2018-07-22T02:50:21.168Z,17.30
2018-07-22T02:50:54.176Z,17.30
2018-07-22T02:51:27.241Z,17.40
2018-07-22T02:52:00.152Z,17.40
2018-07-22T02:52:33.170Z,17.30
2018-07-22T02:53:06.138Z,17.50
2018-07-22T02:53:39.112Z,17.30
2018-07-22T02:54:12.078Z,17.30
2018-07-22T02:54:45.031Z,17.20
2018-07-22T02:55:18.036Z,17.30
2018-07-22T02:55:51.054Z,17.30
2018-07-22T02:56:24.036Z,17.30
2018-07-22T02:56:57.052Z,17.20
2018-07-22T02:57:30.058Z,17.30
2018-07-22T02:58:03.077Z,17.30
2018-07-22T02:58:36.076Z,17.30
2018-07-22T02:59:09.054Z,17.20
2018-07-22T02:59:42.040Z,17.20
2018-07-22T03:00:15.032Z,17.20
2018-07-22T03:00:47.988Z,17.20
2018-07-22T03:01:20.978Z,17.20
2018-07-22T03:01:53.975Z,17.20
2018-07-22T03:02:26.960Z,17.20
2018-07-22T03:02:59.936Z,17.20
2018-07-22T03:03:32.934Z,17.20
2018-07-22T03:04:07.514Z,17.20
2018-07-22T03:04:40.488Z,17.20
2018-07-22T03:05:13.470Z,17.20
2018-07-22T03:05:46.440Z,17.30
2018-07-22T03:06:19.423Z,17.20
2018-07-22T03:06:52.411Z,17.20
2018-07-22T03:07:25.386Z,17.20
2018-07-22T03:07:58.377Z,17.30
2018-07-22T03:08:31.374Z,17.20
2018-07-22T03:09:07.118Z,17.20
2018-07-22T03:09:40.068Z,17.20
2018-07-22T03:10:13.044Z,17.20
2018-07-22T03:10:46.042Z,17.10
2018-07-22T03:11:19.029Z,17.10
2018-07-22T03:11:52.007Z,17.10
2018-07-22T03:12:24.976Z,17.20
2018-07-22T03:12:57.970Z,17.10
2018-07-22T03:13:30.961Z,17.10
2018-07-22T03:14:03.990Z,17.10
2018-07-22T03:14:36.960Z,17.20
2018-07-22T03:15:10.000Z,17.10
2018-07-22T03:15:42.948Z,17.10
2018-07-22T03:16:16.022Z,17.20
2018-07-22T03:16:49.070Z,17.10
2018-07-22T03:17:22.110Z,17.20
2018-07-22T03:17:55.135Z,17.20
2018-07-22T03:18:28.115Z,17.10
2018-07-22T03:19:01.094Z,17.10
2018-07-22T03:19:34.098Z,17.20
2018-07-22T03:20:07.110Z,17.10
2018-07-22T03:20:40.086Z,17.20
2018-07-22T03:21:13.182Z,17.10
2018-07-22T03:21:46.168Z,17.10
2018-07-22T03:22:19.174Z,17.10
2018-07-22T03:22:52.140Z,17.10
2018-07-22T03:23:25.126Z,17.10
2018-07-22T03:23:58.250Z,17.20
2018-07-22T03:24:31.248Z,17.10
2018-07-22T03:25:04.328Z,17.10
2018-07-22T03:25:37.356Z,17.10
2018-07-22T03:26:10.373Z,17.10
2018-07-22T03:26:43.348Z,17.10
2018-07-22T03:27:16.332Z,17.10
2018-07-22T03:27:49.274Z,17.20
2018-07-22T03:28:22.355Z,17.10
2018-07-22T03:28:55.374Z,17.10
2018-07-22T03:29:28.348Z,17.10
2018-07-22T03:30:01.376Z,17.10
2018-07-22T03:30:34.426Z,17.00
2018-07-22T03:31:07.493Z,17.20
2018-07-22T03:31:40.461Z,17.10
2018-07-22T03:32:13.428Z,17.10
2018-07-22T03:32:46.402Z,17.10
2018-07-22T03:33:19.402Z,17.10
2018-07-22T03:33:52.408Z,17.00
2018-07-22T03:34:25.472Z,17.10
2018-07-22T03:34:58.456Z,17.10
2018-07-22T03:35:31.490Z,17.10
2018-07-22T03:36:04.496Z,17.10
2018-07-22T03:36:37.478Z,17.10
2018-07-22T03:37:10.442Z,17.10
2018-07-22T03:37:43.443Z,17.00
2018-07-22T03:38:16.423Z,17.10
2018-07-22T03:38:49.376Z,17.10
2018-07-22T03:39:22.322Z,17.20
2018-07-22T03:39:55.270Z,17.10
2018-07-22T03:40:28.227Z,17.00
2018-07-22T03:41:01.193Z,17.00
2018-07-22T03:41:34.246Z,17.10
2018-07-22T03:42:07.290Z,17.10
2018-07-22T03:42:40.282Z,17.00
2018-07-22T03:43:13.252Z,17.10
2018-07-22T03:43:46.213Z,17.10
2018-07-22T03:44:19.228Z,17.10
2018-07-22T03:46:21.746Z,17.00
2018-07-22T03:46:54.719Z,17.10
2018-07-22T03:47:27.760Z,17.10
2018-07-22T03:48:00.751Z,17.10
2018-07-22T03:48:33.775Z,17.20
2018-07-22T03:49:06.747Z,17.20
2018-07-22T03:49:39.736Z,17.10
2018-07-22T03:50:12.722Z,17.30
2018-07-22T03:50:46.809Z,17.30
2018-07-22T03:51:19.826Z,17.20
2018-07-22T03:51:52.818Z,17.30
2018-07-22T03:52:25.824Z,17.20
2018-07-22T03:52:58.834Z,17.30
2018-07-22T03:53:31.851Z,17.30
2018-07-22T03:54:04.858Z,17.20
2018-07-22T03:54:37.866Z,17.30
2018-07-22T03:55:10.888Z,17.30
2018-07-22T03:55:43.852Z,17.30
2018-07-22T03:56:16.837Z,17.40
2018-07-22T03:56:49.803Z,17.40
2018-07-22T03:57:22.770Z,17.40
2018-07-22T03:57:55.805Z,17.40
2018-07-22T03:58:29.140Z,17.40
2018-07-22T03:59:02.204Z,17.40
2018-07-22T03:59:35.200Z,17.40
2018-07-22T04:00:08.224Z,17.40
2018-07-22T04:00:41.203Z,17.40
2018-07-22T04:01:14.234Z,17.40
2018-07-22T04:01:47.168Z,17.50
2018-07-22T04:02:20.188Z,17.40
2018-07-22T04:02:53.989Z,17.50
2018-07-22T04:03:26.919Z,17.50
2018-07-22T04:03:59.888Z,17.50
2018-07-22T04:04:32.886Z,17.50
2018-07-22T04:05:06.259Z,17.50
2018-07-22T04:05:39.250Z,17.60
2018-07-22T04:06:12.200Z,17.60
2018-07-22T04:06:45.216Z,17.50
2018-07-22T04:07:18.183Z,17.60
2018-07-22T04:07:51.181Z,17.70
2018-07-22T04:08:24.186Z,17.60
2018-07-22T04:08:57.220Z,17.70
2018-07-22T04:09:30.226Z,17.70
2018-07-22T04:10:03.373Z,17.80
2018-07-22T04:10:36.323Z,17.80
2018-07-22T04:11:09.365Z,17.80
2018-07-22T04:11:42.301Z,17.80
2018-07-22T04:12:15.286Z,17.70
2018-07-22T04:12:48.279Z,17.80
2018-07-22T04:13:21.278Z,17.90
2018-07-22T04:13:54.272Z,17.90
2018-07-22T04:14:27.274Z,17.90
2018-07-22T04:15:00.257Z,18.00
2018-07-22T04:15:33.260Z,17.90
2018-07-22T04:16:06.260Z,17.90
2018-07-22T04:16:39.247Z,18.10
2018-07-22T04:17:12.612Z,18.00
2018-07-22T04:17:45.570Z,18.00
2018-07-22T04:18:18.540Z,18.00
2018-07-22T04:18:52.550Z,18.10
2018-07-22T04:19:25.492Z,18.10
2018-07-22T04:19:58.532Z,18.20
2018-07-22T04:20:31.784Z,18.10
2018-07-22T04:21:04.768Z,18.20
2018-07-22T04:21:37.768Z,18.30
2018-07-22T04:22:10.750Z,18.30
2018-07-22T04:22:43.698Z,18.30
2018-07-22T04:23:16.676Z,18.40
2018-07-22T04:23:50.014Z,18.40
2018-07-22T04:24:22.962Z,18.40
2018-07-22T04:24:56.023Z,18.40
2018-07-22T04:25:28.980Z,18.30
2018-07-22T04:26:01.964Z,18.30
2018-07-22T04:26:34.980Z,18.40
2018-07-22T04:27:08.242Z,18.40
2018-07-22T04:27:41.524Z,18.50
2018-07-22T04:28:14.498Z,18.50
2018-07-22T04:28:47.512Z,18.50
2018-07-22T04:29:20.477Z,18.50
2018-07-22T04:29:53.465Z,18.50
2018-07-22T04:30:26.460Z,18.60
2018-07-22T04:30:59.448Z,18.50
2018-07-22T04:31:32.430Z,18.50
2018-07-22T04:32:05.563Z,18.60
2018-07-22T04:32:38.626Z,18.70
2018-07-22T04:33:11.604Z,18.60
2018-07-22T04:33:44.560Z,18.70
2018-07-22T04:34:17.540Z,18.70
2018-07-22T04:34:50.506Z,18.70
2018-07-22T04:35:23.516Z,18.70
2018-07-22T04:35:56.500Z,18.80
2018-07-22T04:36:29.462Z,18.70
2018-07-22T04:37:02.512Z,18.80
2018-07-22T04:37:35.534Z,18.80
2018-07-22T04:38:08.593Z,18.80
2018-07-22T04:38:41.582Z,18.80
2018-07-22T04:39:14.656Z,18.90
2018-07-22T04:39:47.638Z,18.90
2018-07-22T04:40:20.624Z,18.90
2018-07-22T04:40:53.746Z,18.90
2018-07-22T04:41:26.746Z,19.00
2018-07-22T04:41:59.895Z,18.90
2018-07-22T04:42:32.965Z,19.00
2018-07-22T04:43:05.952Z,19.00
2018-07-22T04:43:38.911Z,18.90
2018-07-22T04:44:11.864Z,19.00
2018-07-22T04:44:44.816Z,19.00
2018-07-22T04:45:17.779Z,19.10
2018-07-22T04:45:50.908Z,19.10
2018-07-22T04:46:23.912Z,19.10
2018-07-22T04:46:56.971Z,19.20
2018-07-22T04:47:29.972Z,19.10
2018-07-22T04:48:03.070Z,19.10
2018-07-22T04:48:36.080Z,19.20
2018-07-22T04:49:09.080Z,19.20
2018-07-22T04:49:42.098Z,19.30
2018-07-22T04:50:15.107Z,19.10
2018-07-22T04:50:48.092Z,19.30
2018-07-22T04:51:21.062Z,19.30
2018-07-22T04:51:54.102Z,19.30
2018-07-22T04:52:27.077Z,19.20
2018-07-22T04:53:00.056Z,19.30
2018-07-22T04:53:33.056Z,19.20
2018-07-22T04:54:06.108Z,19.40
2018-07-22T04:54:39.114Z,19.40
2018-07-22T04:55:12.081Z,19.50
2018-07-22T04:55:45.114Z,19.40
2018-07-22T04:56:18.131Z,19.40
2018-07-22T04:56:51.130Z,19.40
2018-07-22T04:57:24.147Z,19.40
2018-07-22T04:57:57.088Z,19.40
2018-07-22T04:58:30.113Z,19.40
2018-07-22T04:59:03.706Z,19.50
2018-07-22T04:59:36.714Z,19.50
2018-07-22T05:00:09.753Z,19.40
2018-07-22T05:00:42.737Z,19.40
2018-07-22T05:01:15.733Z,19.50
2018-07-22T05:01:48.704Z,19.50
2018-07-22T05:02:21.729Z,19.50
2018-07-22T05:02:54.725Z,19.40
2018-07-22T05:03:27.704Z,19.60
2018-07-22T05:04:00.698Z,19.50
2018-07-22T05:04:33.656Z,19.60
2018-07-22T05:05:06.663Z,19.60
2018-07-22T05:05:39.640Z,19.60
2018-07-22T05:06:12.605Z,19.70
2018-07-22T05:06:45.655Z,19.70
2018-07-22T05:07:18.694Z,19.70
2018-07-22T05:07:51.657Z,19.80
2018-07-22T05:08:24.616Z,19.70
2018-07-22T05:08:57.570Z,19.90
2018-07-22T05:09:30.554Z,19.80
2018-07-22T05:10:03.616Z,19.90
2018-07-22T05:10:36.601Z,19.90
2018-07-22T05:11:09.586Z,20.10
2018-07-22T05:11:42.564Z,20.10
2018-07-22T05:12:15.560Z,20.20
2018-07-22T05:12:48.566Z,20.30
2018-07-22T05:13:21.602Z,20.00
2018-07-22T05:13:54.611Z,20.10
2018-07-22T05:14:27.588Z,20.10
2018-07-22T05:15:00.537Z,20.30
2018-07-22T05:15:33.500Z,20.30
2018-07-22T05:16:06.492Z,20.20
2018-07-22T05:16:39.504Z,20.20
2018-07-22T05:17:12.489Z,20.10
2018-07-22T05:17:45.478Z,20.10
2018-07-22T05:18:18.548Z,20.10
2018-07-22T05:18:51.528Z,20.10
2018-07-22T05:19:24.518Z,20.10
2018-07-22T05:19:57.547Z,20.00
2018-07-22T05:20:30.544Z,20.10
2018-07-22T05:21:03.588Z,20.00
2018-07-22T05:21:36.662Z,20.20
2018-07-22T05:22:09.671Z,20.20
2018-07-22T05:22:42.671Z,20.20
2018-07-22T05:23:15.682Z,20.40
2018-07-22T05:23:48.669Z,20.30
2018-07-22T05:24:21.633Z,20.30
2018-07-22T05:24:54.628Z,20.30
2018-07-22T05:25:27.598Z,20.40
2018-07-22T05:26:00.578Z,20.30
2018-07-22T05:26:33.662Z,20.30
2018-07-22T05:27:06.658Z,20.30
2018-07-22T05:27:39.634Z,20.40
2018-07-22T05:28:12.672Z,20.40
2018-07-22T05:28:45.637Z,20.50
2018-07-22T05:29:18.631Z,20.40
2018-07-22T05:29:51.608Z,20.50
2018-07-22T05:30:24.581Z,20.50
2018-07-22T05:30:57.655Z,20.70
2018-07-22T05:31:30.632Z,20.70
2018-07-22T05:32:03.622Z,20.80
2018-07-22T05:32:36.656Z,20.90
2018-07-22T05:33:09.670Z,20.90
2018-07-22T05:33:42.688Z,20.90
2018-07-22T05:34:15.706Z,20.90
2018-07-22T05:34:48.762Z,20.90
2018-07-22T05:35:21.762Z,20.90
2018-07-22T05:35:54.756Z,21.00
2018-07-22T05:36:27.754Z,21.00
2018-07-22T05:37:00.781Z,21.10
2018-07-22T05:37:33.758Z,21.10
2018-07-22T05:38:06.716Z,21.20
2018-07-22T05:38:39.665Z,21.30
2018-07-22T05:39:12.663Z,21.20
2018-07-22T05:39:45.609Z,21.20
2018-07-22T05:40:18.586Z,20.90
2018-07-22T05:40:51.624Z,20.70
2018-07-22T05:41:24.634Z,20.40
2018-07-22T05:41:57.663Z,20.30
2018-07-22T05:42:30.704Z,20.40
2018-07-22T05:43:03.688Z,20.50
2018-07-22T05:43:36.735Z,20.40
2018-07-22T05:44:09.747Z,20.30
2018-07-22T05:44:42.736Z,20.50
2018-07-22T05:45:15.776Z,20.50
2018-07-22T05:45:48.773Z,20.50
2018-07-22T05:46:21.785Z,20.50
2018-07-22T05:46:54.764Z,20.40
2018-07-22T05:47:27.727Z,20.40
2018-07-22T05:48:00.721Z,20.60
2018-07-22T05:48:33.825Z,20.60
2018-07-22T05:49:06.862Z,20.60
2018-07-22T05:49:39.824Z,20.70
2018-07-22T05:50:12.845Z,20.90
2018-07-22T05:50:45.833Z,20.90
2018-07-22T05:51:18.864Z,21.10
2018-07-22T05:51:51.840Z,21.20
2018-07-22T05:52:24.848Z,21.00
2018-07-22T05:52:58.002Z,21.10
2018-07-22T05:53:31.041Z,21.20
2018-07-22T05:54:04.160Z,21.20
2018-07-22T05:54:37.157Z,21.30
2018-07-22T05:55:10.130Z,21.40
2018-07-22T05:55:43.147Z,21.60
2018-07-22T05:56:16.168Z,21.60
2018-07-22T05:56:49.169Z,21.70
2018-07-22T05:57:22.132Z,21.50
2018-07-22T05:57:55.092Z,21.60
2018-07-22T05:58:28.044Z,21.60
2018-07-22T05:59:01.134Z,21.70
2018-07-22T05:59:34.097Z,22.00
2018-07-22T06:00:08.149Z,22.00
2018-07-22T06:00:41.139Z,22.00
2018-07-22T06:01:14.188Z,22.00
2018-07-22T06:01:47.155Z,22.10
2018-07-22T06:02:20.194Z,21.90
2018-07-22T06:02:53.159Z,21.90
2018-07-22T06:03:26.174Z,21.70
2018-07-22T06:03:59.135Z,21.80
2018-07-22T06:04:32.148Z,21.60
2018-07-22T06:05:05.980Z,21.70
2018-07-22T06:05:38.989Z,21.70
2018-07-22T06:06:12.040Z,21.80
2018-07-22T06:06:45.022Z,21.80
2018-07-22T06:07:18.032Z,21.50
2018-07-22T06:07:51.052Z,21.50
2018-07-22T06:08:24.026Z,21.30
2018-07-22T06:08:56.991Z,21.30
2018-07-22T06:09:29.993Z,21.50
2018-07-22T06:10:03.695Z,21.50
2018-07-22T06:10:36.689Z,21.40
2018-07-22T06:11:09.711Z,21.20
2018-07-22T06:11:42.736Z,21.30
2018-07-22T06:12:15.692Z,21.30
2018-07-22T06:12:48.703Z,21.20
2018-07-22T06:13:21.701Z,21.20
2018-07-22T06:13:54.711Z,21.40
2018-07-22T06:14:27.966Z,21.60
2018-07-22T06:15:00.969Z,21.80
2018-07-22T06:15:33.963Z,22.00
2018-07-22T06:16:06.975Z,21.80
2018-07-22T06:16:40.004Z,21.90
2018-07-22T06:17:13.266Z,22.00
2018-07-22T06:17:46.258Z,22.10
2018-07-22T06:18:19.255Z,22.00
2018-07-22T06:18:52.244Z,21.90
2018-07-22T06:19:25.316Z,22.00
2018-07-22T06:19:58.421Z,21.90
2018-07-22T06:20:31.433Z,22.00
2018-07-22T06:21:04.496Z,22.00
2018-07-22T06:21:37.502Z,22.10
2018-07-22T06:22:10.526Z,22.00
2018-07-22T06:22:43.543Z,22.00
2018-07-22T06:23:16.616Z,22.20
2018-07-22T06:23:49.593Z,22.10
2018-07-22T06:24:22.577Z,22.00
2018-07-22T06:24:55.626Z,21.90
2018-07-22T06:25:28.658Z,21.80
2018-07-22T06:26:01.640Z,21.90
2018-07-22T06:26:34.698Z,21.90
2018-07-22T06:27:07.824Z,21.60
2018-07-22T06:27:40.840Z,21.80
2018-07-22T06:28:13.910Z,21.50
2018-07-22T06:28:46.912Z,21.50
2018-07-22T06:29:23.276Z,21.40
2018-07-22T06:29:56.320Z,21.70
2018-07-22T06:30:29.320Z,21.80
2018-07-22T06:31:02.368Z,22.00
2018-07-22T06:31:35.392Z,22.20
2018-07-22T06:32:08.381Z,22.20
2018-07-22T06:32:41.384Z,22.50
2018-07-22T06:33:14.515Z,22.80
2018-07-22T06:33:47.508Z,22.90
2018-07-22T06:34:20.502Z,23.00
2018-07-22T06:34:53.509Z,23.10
2018-07-22T06:35:26.524Z,23.30
2018-07-22T06:35:59.521Z,23.40
2018-07-22T06:36:32.554Z,23.60
2018-07-22T06:37:05.638Z,23.70
2018-07-22T06:37:38.645Z,24.00
2018-07-22T06:38:11.609Z,24.10
2018-07-22T06:38:44.573Z,24.30
2018-07-22T06:39:17.530Z,24.40
2018-07-22T06:39:50.564Z,24.40
2018-07-22T06:40:23.573Z,24.60
2018-07-22T06:40:56.571Z,24.70
2018-07-22T06:41:29.563Z,24.80
2018-07-22T06:42:02.714Z,24.80
2018-07-22T06:42:35.717Z,25.00
2018-07-22T06:43:09.144Z,25.00
2018-07-22T06:43:42.290Z,25.00
2018-07-22T06:44:15.311Z,25.00
2018-07-22T06:44:48.292Z,25.10
2018-07-22T06:45:21.367Z,25.00
2018-07-22T06:45:54.401Z,25.00
2018-07-22T06:46:27.438Z,25.00
2018-07-22T06:47:00.482Z,25.10
2018-07-22T06:47:33.626Z,25.10
2018-07-22T06:48:06.614Z,25.20
2018-07-22T06:48:39.618Z,25.30
2018-07-22T06:49:12.618Z,25.40
2018-07-22T06:49:45.627Z,25.00
2018-07-22T06:50:18.760Z,24.60
2018-07-22T06:50:51.752Z,24.60
2018-07-22T06:51:24.720Z,24.50
2018-07-22T06:51:57.693Z,24.30
2018-07-22T06:52:30.704Z,24.50
2018-07-22T06:53:03.719Z,24.60
2018-07-22T06:53:36.763Z,24.50
2018-07-22T06:54:09.716Z,24.30
2018-07-22T06:54:42.842Z,24.00
2018-07-22T06:55:15.861Z,24.10
2018-07-22T06:55:48.854Z,24.20
2018-07-22T06:56:21.857Z,24.40
2018-07-22T06:56:54.941Z,24.50
2018-07-22T06:57:27.918Z,24.70
2018-07-22T06:58:01.042Z,24.90
2018-07-22T06:58:34.024Z,25.00
2018-07-22T06:59:07.046Z,25.20
2018-07-22T06:59:40.068Z,25.20
2018-07-22T07:00:13.061Z,25.40
2018-07-22T07:00:46.783Z,25.50
2018-07-22T07:01:19.785Z,25.70
2018-07-22T07:01:52.832Z,25.80
2018-07-22T07:02:25.834Z,25.70
2018-07-22T07:02:58.816Z,25.90
2018-07-22T07:03:31.788Z,26.00
2018-07-22T07:04:04.834Z,26.20
2018-07-22T07:04:37.810Z,26.10
2018-07-22T07:05:10.893Z,26.10
2018-07-22T07:05:43.878Z,26.00
2018-07-22T07:06:16.892Z,26.10
2018-07-22T07:06:49.889Z,26.20
2018-07-22T07:07:22.859Z,26.20
2018-07-22T07:07:55.892Z,26.10
2018-07-22T07:08:28.917Z,26.10
2018-07-22T07:09:01.914Z,26.20
2018-07-22T07:09:34.978Z,26.10